Ashford, WA (98304)

10:03 AM PST on December 09, 2016 (GMT -0800)
Alpine Village | | Change Station
Active Advisory: Winter Weather Advisory

Elev 1842 ft 46.76 °N, 121.99 °W | Updated 1 minute ago

Ice Pellets
Ice Pellets
34.3 °F
Feels Like 34 °F
N
0.0
Wind Variable Wind from South
Gusts 0.0 mph

Today
High -- | Low -- °F
--% Chance of Precip.
Yesterday
High -- | Low -- °F
Precip. -- in
Pressure 29.96 in
Visibility 1.8 miles
Clouds Overcast 3000 ft
Windchill 34 °F
Dew Point 32 °F
Humidity 89%
Rainfall 0.00 in
Snow Depth Not available.
7:41 AM 4:19 PM
Waxing Gibbous, 76% visible
METAR KPLU 091755Z AUTO 00000KT 1 3/4SM -DZ OVC030 01/01 A2996 RMK AO2
Pressure 29.96 in
Visibility 1.8 miles
Clouds Overcast 3000 ft
Windchill 34 °F
Dew Point 32 °F
Humidity 89%
Rainfall 0.00 in
Snow Depth Not available.
7:41 AM 4:19 PM
Waxing Gibbous, 76% visible
METAR KPLU 091755Z AUTO 00000KT 1 3/4SM -DZ OVC030 01/01 A2996 RMK AO2

10-Day Weather Forecast

Almanac

Astronomy

Dec. 09, 2016 Rise Set
Actual Time
Civil Twilight
Nautical Twilight
Astronomical Twilight
Moon
Length of Visible Light
Length of Day
Tomorrow will be .
, % of the Moon is Illuminated

Today's Extremes

State Highs State Lows

Community

WunderPhotos

Upload Photos

1,956,499 photos uploaded!

WunderBlog® & News

Nearby

Air Quality

  Air Quality AQ Index Pollutant
Not available.

Snow Depth

Station Depth Elevation

Earthquake Activity

City Distance Mag. Time & Date
Minimum magnitude displayed is 2.5.

Coastal Water Temperatures

Place Temperature

Stations

Nearby Weather Stations

Station Location Temp. Windchill Dew Point Humidity Wind Precip. Elev Updated Type
                   

Watches & Warnings

Winter Weather Advisory
Issued: 8:35 AM PST Dec. 9, 2016 – National Weather Service

... Winter Weather Advisory remains in effect until 3 am PST
Saturday...

* timing... the threat of continued snowfall looks to remain over
the mountains of western Washington through the day today before
starting to taper off during the overnight hours tonight.
Increased east to southeast winds combined with expected snow may
reduce visibility at times.

* Accumulation... additional snow accumulations of 4 to 8 inches of
are expected through this evening.

* Main impact... travel will be affected as roads may become
slippery and winds combined with snow may reduce visibility at
times.

Precautionary/preparedness actions...

People planning on travel late Thursday afternoon and night should
expect winter driving conditions.